createdAt,value
2022-11-29T00:01:20.672Z,65.90
2022-11-29T00:03:48.091Z,64.50
2022-11-29T00:06:17.872Z,65.07
2022-11-29T00:08:45.781Z,62.93
2022-11-29T00:11:36.280Z,63.10
2022-11-29T00:14:03.884Z,64.80
2022-11-29T00:16:30.708Z,68.37
2022-11-29T00:18:57.799Z,68.10
2022-11-29T00:21:24.601Z,65.23
2022-11-29T00:23:51.791Z,63.03
2022-11-29T00:26:18.946Z,63.27
2022-11-29T00:28:45.981Z,65.07
2022-11-29T00:31:24.974Z,66.93
2022-11-29T00:33:53.019Z,64.10
2022-11-29T00:36:20.242Z,73.30
2022-11-29T00:38:47.337Z,67.53
2022-11-29T00:41:14.225Z,67.13
2022-11-29T00:43:41.610Z,65.10
2022-11-29T00:46:09.343Z,62.00
2022-11-29T00:48:36.758Z,68.73
2022-11-29T00:51:05.251Z,69.10
2022-11-29T00:53:33.515Z,67.83
2022-11-29T00:56:00.538Z,63.70
2022-11-29T00:58:28.284Z,63.93
2022-11-29T01:00:55.838Z,68.83
2022-11-29T01:03:23.737Z,64.40
2022-11-29T01:05:51.046Z,66.83
2022-11-29T01:08:18.858Z,66.43
2022-11-29T01:10:45.665Z,65.43
2022-11-29T01:13:13.804Z,69.80
2022-11-29T01:15:41.539Z,74.77
2022-11-29T01:18:08.712Z,65.50
2022-11-29T01:20:35.556Z,66.97
2022-11-29T01:23:02.575Z,66.50
2022-11-29T01:25:29.464Z,69.10
2022-11-29T01:27:56.514Z,62.27
2022-11-29T01:30:23.287Z,63.10
2022-11-29T01:32:50.426Z,69.53
2022-11-29T01:35:17.540Z,72.73
2022-11-29T01:37:44.587Z,71.43
2022-11-29T01:40:11.740Z,67.70
2022-11-29T01:42:38.828Z,67.07
2022-11-29T01:45:21.512Z,66.47
2022-11-29T01:47:52.224Z,63.97
2022-11-29T01:50:20.071Z,74.00
2022-11-29T01:52:47.839Z,73.47
2022-11-29T01:55:15.364Z,67.60
2022-11-29T01:57:43.741Z,67.00
2022-11-29T02:00:18.057Z,66.10
2022-11-29T02:02:52.173Z,68.67
2022-11-29T02:05:20.602Z,68.90
2022-11-29T02:07:52.232Z,75.03
2022-11-29T02:10:20.269Z,69.80
2022-11-29T02:13:00.995Z,75.83
2022-11-29T02:15:44.191Z,74.03
2022-11-29T02:18:15.452Z,74.03
2022-11-29T02:21:16.967Z,74.13
2022-11-29T02:24:05.379Z,75.30
2022-11-29T02:26:32.105Z,80.87
2022-11-29T02:29:29.578Z,83.10
2022-11-29T02:32:37.008Z,85.63
2022-11-29T02:35:45.492Z,74.83
2022-11-29T02:38:50.136Z,84.13
2022-11-29T02:41:41.144Z,78.67
2022-11-29T02:44:25.225Z,84.30
2022-11-29T02:46:58.353Z,84.63
2022-11-29T02:49:41.641Z,86.97
2022-11-29T02:52:16.669Z,84.30
2022-11-29T02:54:51.067Z,81.97
2022-11-29T02:57:31.151Z,84.83
2022-11-29T03:00:20.049Z,83.47
2022-11-29T03:02:50.778Z,82.87
2022-11-29T03:05:29.530Z,79.73
2022-11-29T03:08:16.451Z,78.60
2022-11-29T03:10:56.847Z,84.57
2022-11-29T03:13:52.482Z,75.63
2022-11-29T03:16:43.073Z,82.20
2022-11-29T03:19:28.971Z,74.80
2022-11-29T03:22:47.087Z,86.93
2022-11-29T03:25:31.815Z,87.80
2022-11-29T03:28:01.610Z,94.77
2022-11-29T03:30:32.535Z,99.83
2022-11-29T03:33:56.402Z,111.27
2022-11-29T03:36:48.061Z,112.70
2022-11-29T03:39:24.930Z,113.77
2022-11-29T03:41:59.164Z,88.07
2022-11-29T03:44:33.524Z,91.43
2022-11-29T03:47:14.745Z,91.50
2022-11-29T03:49:59.725Z,84.07
2022-11-29T03:52:33.172Z,87.33
2022-11-29T03:55:08.933Z,90.63
2022-11-29T03:58:13.614Z,84.77
2022-11-29T04:00:50.155Z,88.73
2022-11-29T04:03:19.915Z,85.60
2022-11-29T04:05:58.698Z,80.67
2022-11-29T04:08:59.973Z,79.53
2022-11-29T04:11:58.980Z,92.60
2022-11-29T04:15:17.971Z,88.13
2022-11-29T04:18:10.571Z,83.93
2022-11-29T04:21:18.346Z,88.03
2022-11-29T04:24:19.634Z,86.93
2022-11-29T04:27:41.775Z,82.13
2022-11-29T04:30:17.846Z,81.77
2022-11-29T04:33:14.057Z,83.87
2022-11-29T04:36:02.569Z,83.47
2022-11-29T04:38:56.942Z,84.20
2022-11-29T04:41:50.366Z,86.40
2022-11-29T04:44:27.815Z,79.17
2022-11-29T04:47:16.014Z,81.10
2022-11-29T04:50:34.116Z,85.83
2022-11-29T04:53:29.416Z,74.53
2022-11-29T04:56:21.487Z,84.73
2022-11-29T04:58:59.209Z,90.23
2022-11-29T05:01:32.452Z,78.53
2022-11-29T05:04:10.131Z,75.73
2022-11-29T05:07:11.744Z,80.13
2022-11-29T05:10:00.479Z,82.00
2022-11-29T05:12:42.486Z,82.30
2022-11-29T05:15:46.864Z,79.00
2022-11-29T05:18:38.348Z,77.90
2022-11-29T05:21:36.148Z,77.93
2022-11-29T05:24:24.055Z,75.57
2022-11-29T05:27:19.450Z,76.63
2022-11-29T05:29:57.761Z,77.20
2022-11-29T05:32:33.968Z,71.00
2022-11-29T05:35:29.203Z,71.33
2022-11-29T05:38:07.046Z,76.63
2022-11-29T05:41:00.718Z,77.90
2022-11-29T05:43:56.122Z,71.07
2022-11-29T05:46:32.623Z,72.27
2022-11-29T05:49:21.361Z,77.30
2022-11-29T05:52:22.388Z,78.47
2022-11-29T05:54:57.970Z,73.80
2022-11-29T05:57:58.822Z,67.80
2022-11-29T06:00:33.256Z,68.57
2022-11-29T06:03:06.165Z,64.90
2022-11-29T06:05:53.685Z,67.07
2022-11-29T06:08:54.672Z,62.97
2022-11-29T06:11:30.939Z,68.50
2022-11-29T06:14:05.621Z,65.23
2022-11-29T06:16:57.412Z,65.17
2022-11-29T06:19:33.239Z,67.17
2022-11-29T06:22:11.925Z,67.43
2022-11-29T06:24:42.264Z,66.67
2022-11-29T06:27:09.368Z,63.57
2022-11-29T06:29:51.827Z,66.23
2022-11-29T06:32:42.007Z,65.83
2022-11-29T06:35:47.177Z,66.27
2022-11-29T06:38:34.406Z,67.10
2022-11-29T06:41:02.605Z,65.47
2022-11-29T06:43:30.472Z,64.57
2022-11-29T06:46:06.008Z,59.97
2022-11-29T06:48:43.276Z,64.20
2022-11-29T06:51:20.886Z,72.67
2022-11-29T06:54:25.097Z,73.43
2022-11-29T06:57:03.452Z,67.43
2022-11-29T07:00:01.593Z,60.70
2022-11-29T07:02:38.049Z,60.50
2022-11-29T07:05:17.650Z,74.10
2022-11-29T07:07:47.016Z,68.93
2022-11-29T07:10:17.442Z,67.13
2022-11-29T07:12:46.156Z,64.47
2022-11-29T07:15:15.768Z,64.03
2022-11-29T07:18:07.473Z,64.90
2022-11-29T07:21:02.963Z,69.27
2022-11-29T07:23:51.825Z,71.63
2022-11-29T07:26:35.140Z,72.40
2022-11-29T07:29:33.532Z,64.37
2022-11-29T07:32:03.309Z,69.43
2022-11-29T07:34:49.060Z,68.37
2022-11-29T07:37:53.561Z,75.00
2022-11-29T07:40:38.145Z,71.57
2022-11-29T07:43:53.239Z,62.47
2022-11-29T07:46:20.432Z,67.77
2022-11-29T07:48:47.712Z,66.30
2022-11-29T07:51:14.735Z,70.97
2022-11-29T07:53:43.854Z,68.00
2022-11-29T07:56:16.315Z,68.17
2022-11-29T07:58:43.781Z,63.00
2022-11-29T08:01:10.967Z,68.13
2022-11-29T08:03:37.919Z,69.17
2022-11-29T08:06:05.048Z,71.10
2022-11-29T08:08:31.829Z,65.37
2022-11-29T08:10:58.992Z,65.67
2022-11-29T08:13:25.711Z,67.80
2022-11-29T08:15:53.020Z,62.67
2022-11-29T08:18:20.108Z,72.23
2022-11-29T08:20:47.217Z,71.33
2022-11-29T08:23:15.693Z,71.13
2022-11-29T08:25:42.813Z,69.57
2022-11-29T08:28:09.876Z,64.50
2022-11-29T08:30:37.808Z,61.80
2022-11-29T08:33:04.852Z,65.37
2022-11-29T08:35:31.916Z,60.20
2022-11-29T08:37:58.696Z,65.67
2022-11-29T08:40:25.882Z,56.87
2022-11-29T08:42:57.632Z,64.07
2022-11-29T08:45:24.699Z,112.07
2022-11-29T08:47:51.551Z,68.03
2022-11-29T08:50:18.631Z,67.70
2022-11-29T08:53:06.559Z,61.60
2022-11-29T08:55:37.518Z,65.43
2022-11-29T08:58:07.372Z,60.93
2022-11-29T09:00:34.918Z,68.80
2022-11-29T09:03:22.083Z,63.87
2022-11-29T09:05:49.670Z,66.50
2022-11-29T09:08:16.727Z,72.47
2022-11-29T09:10:43.770Z,67.93
2022-11-29T09:13:11.409Z,63.63
2022-11-29T09:15:40.007Z,65.17
2022-11-29T09:18:06.806Z,64.30
2022-11-29T09:20:34.451Z,69.73
2022-11-29T09:23:02.130Z,72.90
2022-11-29T09:25:29.471Z,72.00
2022-11-29T09:27:58.810Z,72.80
2022-11-29T09:30:26.439Z,66.67
2022-11-29T09:32:53.349Z,69.30
2022-11-29T09:35:20.644Z,79.10
2022-11-29T09:37:47.399Z,74.97
2022-11-29T09:40:27.426Z,77.20
2022-11-29T09:43:19.276Z,73.83
2022-11-29T09:45:49.464Z,76.77
2022-11-29T09:48:22.818Z,75.43
2022-11-29T09:51:29.280Z,77.77
2022-11-29T09:54:24.297Z,85.57
2022-11-29T09:56:55.835Z,79.00
2022-11-29T09:59:31.645Z,79.33
2022-11-29T10:02:06.154Z,77.17
2022-11-29T10:04:40.388Z,74.93
2022-11-29T10:07:18.654Z,76.77
2022-11-29T10:10:02.145Z,78.50
2022-11-29T10:12:37.737Z,79.00
2022-11-29T10:15:19.700Z,78.90
2022-11-29T10:18:03.890Z,75.87
2022-11-29T10:20:42.430Z,76.97
2022-11-29T10:23:31.907Z,70.60
2022-11-29T10:25:59.169Z,78.00
2022-11-29T10:28:30.684Z,75.73
2022-11-29T10:31:03.166Z,74.70
2022-11-29T10:33:32.811Z,72.07
2022-11-29T10:36:04.717Z,80.40
2022-11-29T10:38:32.179Z,80.50
2022-11-29T10:41:09.722Z,72.03
2022-11-29T10:43:37.785Z,70.97
2022-11-29T10:46:06.451Z,73.60
2022-11-29T10:48:34.378Z,80.80
2022-11-29T10:51:02.070Z,77.23
2022-11-29T10:53:36.813Z,75.30
2022-11-29T10:56:08.746Z,70.40
2022-11-29T10:58:36.266Z,75.80
2022-11-29T11:01:08.471Z,81.70
2022-11-29T11:03:40.332Z,81.17
2022-11-29T11:06:10.125Z,78.80
2022-11-29T11:08:39.171Z,76.13
2022-11-29T11:11:07.947Z,76.40
2022-11-29T11:13:36.844Z,66.77
2022-11-29T11:16:18.398Z,77.10
2022-11-29T11:18:47.368Z,82.93
2022-11-29T11:21:18.123Z,73.73
2022-11-29T11:23:48.208Z,82.10
2022-11-29T11:26:15.183Z,74.87
2022-11-29T11:28:57.950Z,79.63
2022-11-29T11:31:34.470Z,81.50
2022-11-29T11:34:23.366Z,68.23
2022-11-29T11:36:50.275Z,74.73
2022-11-29T11:39:23.935Z,73.67
2022-11-29T11:42:10.626Z,72.27
2022-11-29T11:44:49.699Z,67.33
2022-11-29T11:47:21.267Z,70.93
2022-11-29T11:49:50.369Z,74.63
2022-11-29T11:52:22.575Z,68.80
2022-11-29T11:54:57.354Z,77.00
2022-11-29T11:57:26.158Z,70.37
2022-11-29T11:59:56.206Z,70.40
2022-11-29T12:02:26.517Z,69.37
2022-11-29T12:04:58.800Z,81.17
2022-11-29T12:08:06.021Z,75.50
2022-11-29T12:10:25.120Z,71.33
2022-11-29T12:12:53.516Z,64.80
2022-11-29T12:15:25.772Z,71.70
2022-11-29T12:18:02.010Z,69.43
2022-11-29T12:20:54.150Z,72.80
2022-11-29T12:23:47.298Z,70.43
2022-11-29T12:26:55.239Z,69.60
2022-11-29T12:29:22.295Z,70.30
2022-11-29T12:32:01.434Z,69.90
2022-11-29T12:34:50.222Z,64.40
2022-11-29T12:37:27.404Z,69.13
2022-11-29T12:40:16.799Z,71.70
2022-11-29T12:42:53.855Z,69.40
2022-11-29T12:45:20.673Z,68.80
2022-11-29T12:48:10.178Z,80.37
2022-11-29T12:50:55.779Z,71.13
2022-11-29T12:53:48.727Z,70.00
2022-11-29T12:56:25.401Z,70.83
2022-11-29T12:59:23.528Z,76.00
2022-11-29T13:02:28.108Z,74.10
2022-11-29T13:05:18.904Z,73.67
2022-11-29T13:07:51.670Z,72.17
2022-11-29T13:10:21.457Z,74.80
2022-11-29T13:12:55.704Z,76.43
2022-11-29T13:15:45.288Z,73.37
2022-11-29T13:18:50.893Z,85.07
2022-11-29T13:21:47.420Z,72.53
2022-11-29T13:24:47.128Z,73.43
2022-11-29T13:27:40.672Z,74.83
2022-11-29T13:30:07.952Z,71.83
2022-11-29T13:32:48.366Z,81.37
2022-11-29T13:35:15.079Z,87.50
2022-11-29T13:38:09.903Z,78.33
2022-11-29T13:40:59.901Z,72.20
2022-11-29T13:43:45.165Z,76.63
2022-11-29T13:46:35.481Z,70.13
2022-11-29T13:49:02.787Z,70.77
2022-11-29T13:51:35.356Z,70.90
2022-11-29T13:54:06.336Z,62.83
2022-11-29T13:56:43.071Z,63.67
2022-11-29T13:59:22.511Z,69.33
2022-11-29T14:01:53.771Z,63.17
2022-11-29T14:04:37.588Z,56.80
2022-11-29T14:07:19.575Z,62.67
2022-11-29T14:09:55.642Z,64.80
2022-11-29T14:12:38.379Z,66.40
2022-11-29T14:15:18.270Z,62.40
2022-11-29T14:17:54.601Z,61.80
2022-11-29T14:20:25.134Z,64.53
2022-11-29T14:23:03.864Z,58.27
2022-11-29T14:28:22.097Z,61.73
2022-11-29T14:31:02.828Z,62.50
2022-11-29T14:33:46.915Z,59.10
2022-11-29T14:36:29.043Z,54.87
2022-11-29T14:39:33.216Z,54.93
2022-11-29T14:42:06.459Z,57.70
2022-11-29T14:44:42.735Z,56.13
2022-11-29T14:47:24.000Z,56.50
2022-11-29T14:49:53.015Z,58.87
2022-11-29T14:52:27.453Z,60.20
2022-11-29T14:55:08.802Z,59.37
2022-11-29T14:57:48.379Z,71.00
2022-11-29T15:00:16.201Z,58.17
2022-11-29T15:02:55.312Z,71.70
2022-11-29T15:05:38.115Z,63.60
2022-11-29T15:08:15.486Z,53.77
2022-11-29T15:10:48.892Z,61.53
2022-11-29T15:13:24.531Z,56.17
2022-11-29T15:16:09.433Z,64.70
2022-11-29T15:19:01.742Z,54.10
2022-11-29T15:21:34.593Z,61.80
2022-11-29T15:24:09.031Z,71.80
2022-11-29T15:26:35.835Z,56.00
2022-11-29T15:29:18.297Z,59.17
2022-11-29T15:31:49.427Z,61.83
2022-11-29T15:34:42.954Z,58.30
2022-11-29T15:37:22.320Z,62.37
2022-11-29T15:40:01.419Z,64.37
2022-11-29T15:42:32.557Z,68.73
2022-11-29T15:44:59.891Z,69.77
2022-11-29T15:47:26.926Z,65.07
2022-11-29T15:49:54.486Z,56.23
2022-11-29T15:52:31.569Z,59.47
2022-11-29T15:55:02.336Z,56.93
2022-11-29T15:57:38.564Z,63.30
2022-11-29T16:00:08.207Z,55.40
2022-11-29T16:02:38.570Z,59.87
2022-11-29T16:05:14.746Z,50.97
2022-11-29T16:07:43.244Z,54.23
2022-11-29T16:10:18.010Z,57.90
2022-11-29T16:12:59.970Z,57.27
2022-11-29T16:15:35.703Z,61.37
2022-11-29T16:18:04.741Z,64.77
2022-11-29T16:20:31.942Z,56.47
2022-11-29T16:23:13.828Z,56.13
2022-11-29T16:25:49.876Z,59.40
2022-11-29T16:28:16.742Z,53.50
2022-11-29T16:30:43.831Z,57.67
2022-11-29T16:33:21.354Z,50.27
2022-11-29T16:35:48.782Z,55.07
2022-11-29T16:38:22.184Z,59.40
2022-11-29T16:41:22.205Z,58.37
2022-11-29T16:43:56.130Z,70.93
2022-11-29T16:46:25.578Z,62.00
2022-11-29T16:48:54.395Z,67.97
2022-11-29T16:51:42.515Z,69.63
2022-11-29T16:54:21.692Z,63.30
2022-11-29T16:56:50.954Z,72.67
2022-11-29T16:59:26.599Z,60.10
2022-11-29T17:01:56.147Z,54.83
2022-11-29T17:04:23.362Z,53.33
2022-11-29T17:06:54.102Z,49.80
2022-11-29T17:09:30.830Z,59.50
2022-11-29T17:11:59.999Z,69.00
2022-11-29T17:14:28.214Z,70.93
2022-11-29T17:16:55.688Z,64.23
2022-11-29T17:19:23.814Z,70.73
2022-11-29T17:21:52.744Z,66.10
2022-11-29T17:24:21.593Z,58.50
2022-11-29T17:26:49.026Z,67.20
2022-11-29T17:29:17.214Z,64.87
2022-11-29T17:31:45.645Z,58.63
2022-11-29T17:34:12.964Z,65.33
2022-11-29T17:36:40.501Z,65.43
2022-11-29T17:39:08.017Z,64.90
2022-11-29T17:41:35.397Z,67.97
2022-11-29T17:44:02.327Z,63.60
2022-11-29T17:46:34.457Z,75.70
2022-11-29T17:49:03.737Z,71.60
2022-11-29T17:54:17.976Z,74.97
2022-11-29T17:56:45.076Z,83.13
2022-11-29T17:59:11.868Z,92.83
2022-11-29T18:01:38.969Z,70.23
2022-11-29T18:04:08.263Z,72.40
2022-11-29T18:06:39.939Z,68.37
2022-11-29T18:09:09.012Z,62.37
2022-11-29T18:11:46.393Z,64.87
2022-11-29T18:14:17.147Z,70.73
2022-11-29T18:16:45.420Z,84.63
2022-11-29T18:19:15.815Z,76.50
2022-11-29T18:21:43.345Z,80.10
2022-11-29T18:24:10.621Z,76.60
2022-11-29T18:26:38.891Z,74.50
2022-11-29T18:29:07.034Z,76.27
2022-11-29T18:31:36.640Z,81.03
2022-11-29T18:34:07.101Z,76.93
2022-11-29T18:36:55.508Z,77.90
2022-11-29T18:39:24.928Z,74.37
2022-11-29T18:41:52.098Z,79.50
2022-11-29T18:44:21.465Z,81.10
2022-11-29T18:46:49.115Z,69.13
2022-11-29T18:49:17.755Z,71.50
2022-11-29T18:51:46.403Z,81.23
2022-11-29T18:54:15.378Z,82.83
2022-11-29T18:56:44.101Z,75.53
2022-11-29T18:59:14.779Z,62.60
2022-11-29T19:01:43.132Z,66.93
2022-11-29T19:04:15.609Z,75.53
2022-11-29T19:06:43.359Z,67.47
2022-11-29T19:09:27.942Z,70.63
2022-11-29T19:11:55.073Z,78.13
2022-11-29T19:14:21.831Z,86.03
2022-11-29T19:16:49.561Z,81.97
2022-11-29T19:19:18.636Z,61.93
2022-11-29T19:21:46.261Z,73.43
2022-11-29T19:24:15.230Z,85.30
2022-11-29T19:26:44.912Z,102.00
2022-11-29T19:29:13.920Z,79.83
2022-11-29T19:31:41.708Z,79.77
2022-11-29T19:34:08.487Z,68.37
2022-11-29T19:36:43.712Z,73.53
2022-11-29T19:39:13.900Z,82.63
2022-11-29T19:41:43.070Z,74.37
2022-11-29T19:44:10.261Z,84.37
2022-11-29T19:46:43.327Z,80.23
2022-11-29T19:49:10.504Z,71.13
2022-11-29T19:51:38.093Z,75.13
2022-11-29T19:54:07.251Z,81.27
2022-11-29T19:56:34.604Z,77.23
2022-11-29T19:59:01.563Z,81.70
2022-11-29T20:01:37.755Z,93.27
2022-11-29T20:04:06.396Z,79.13
2022-11-29T20:06:33.823Z,91.20
2022-11-29T20:09:00.587Z,85.93
2022-11-29T20:11:27.640Z,78.30
2022-11-29T20:14:02.314Z,80.63
2022-11-29T20:16:31.057Z,84.57
2022-11-29T20:18:58.969Z,77.60
2022-11-29T20:21:29.262Z,80.30
2022-11-29T20:23:58.169Z,89.17
2022-11-29T20:26:25.695Z,81.97
2022-11-29T20:28:52.612Z,83.27
2022-11-29T20:31:23.001Z,95.57
2022-11-29T20:33:52.626Z,91.27
2022-11-29T20:36:57.903Z,83.30
2022-11-29T20:39:50.041Z,89.33
2022-11-29T20:42:29.499Z,84.57
2022-11-29T20:44:57.849Z,95.00
2022-11-29T20:47:27.646Z,88.03
2022-11-29T20:49:54.912Z,96.37
2022-11-29T20:52:34.322Z,89.13
2022-11-29T20:55:01.052Z,86.53
2022-11-29T20:57:28.402Z,91.67
2022-11-29T20:59:55.300Z,90.40
2022-11-29T21:02:23.081Z,93.87
2022-11-29T21:04:50.348Z,89.83
2022-11-29T21:07:17.821Z,77.73
2022-11-29T21:09:45.170Z,79.53
2022-11-29T21:12:12.792Z,83.63
2022-11-29T21:14:39.869Z,79.60
2022-11-29T21:17:08.812Z,90.00
2022-11-29T21:19:36.122Z,85.90
2022-11-29T21:22:12.256Z,86.10
2022-11-29T21:24:46.324Z,76.43
2022-11-29T21:27:17.710Z,83.20
2022-11-29T21:29:46.077Z,99.33
2022-11-29T21:32:22.149Z,81.83
2022-11-29T21:34:49.398Z,77.47
2022-11-29T21:37:20.112Z,73.33
2022-11-29T21:39:48.855Z,74.67
2022-11-29T21:42:16.036Z,73.03
2022-11-29T21:44:43.553Z,73.90
2022-11-29T21:47:10.836Z,84.10
2022-11-29T21:49:37.615Z,80.97
2022-11-29T21:52:06.325Z,75.13
2022-11-29T21:54:33.476Z,75.30
2022-11-29T21:57:01.709Z,76.13
2022-11-29T21:59:28.535Z,73.60
2022-11-29T22:01:55.720Z,68.77
2022-11-29T22:04:22.900Z,69.40
2022-11-29T22:06:49.934Z,70.83
2022-11-29T22:09:16.706Z,73.90
2022-11-29T22:11:43.818Z,67.03
2022-11-29T22:14:16.360Z,69.50
2022-11-29T22:16:58.260Z,76.90
2022-11-29T22:19:30.822Z,72.77
2022-11-29T22:22:01.061Z,65.07
2022-11-29T22:24:30.211Z,70.80
2022-11-29T22:26:57.809Z,69.93
2022-11-29T22:29:25.163Z,78.70
2022-11-29T22:31:54.073Z,71.73
2022-11-29T22:34:22.255Z,62.63
2022-11-29T22:36:49.331Z,68.63
2022-11-29T22:39:16.120Z,77.80
2022-11-29T22:41:43.564Z,72.67
2022-11-29T22:44:10.548Z,79.67
2022-11-29T22:46:40.442Z,73.33
2022-11-29T22:49:07.654Z,68.57
2022-11-29T22:51:36.705Z,74.87
2022-11-29T22:54:05.922Z,74.70
2022-11-29T22:56:35.922Z,66.70
2022-11-29T22:59:03.505Z,75.97
2022-11-29T23:01:32.826Z,68.73
2022-11-29T23:04:03.896Z,71.70
2022-11-29T23:06:36.499Z,71.13
2022-11-29T23:09:19.890Z,75.20
2022-11-29T23:11:51.984Z,79.57
2022-11-29T23:14:19.595Z,70.77
2022-11-29T23:16:46.921Z,63.97
2022-11-29T23:19:16.218Z,70.57
2022-11-29T23:21:45.743Z,73.70
2022-11-29T23:24:14.568Z,66.80
2022-11-29T23:26:45.094Z,71.07
2022-11-29T23:29:14.613Z,72.70
2022-11-29T23:31:42.300Z,67.53
2022-11-29T23:34:09.135Z,68.57
2022-11-29T23:36:36.222Z,67.90
2022-11-29T23:39:04.578Z,67.50
2022-11-29T23:41:31.602Z,68.67
2022-11-29T23:43:59.739Z,79.93
2022-11-29T23:46:26.928Z,62.03
2022-11-29T23:48:53.823Z,63.30
2022-11-29T23:51:21.306Z,65.97
2022-11-29T23:53:52.603Z,64.20
2022-11-29T23:56:20.849Z,72.87
2022-11-29T23:58:48.329Z,71.20
